createdAt,value
2018-04-23T00:00:09.822Z,94.20
2018-04-23T00:02:40.953Z,96.40
2018-04-23T00:05:11.923Z,99.00
2018-04-23T00:07:43.644Z,99.90
2018-04-23T00:10:13.428Z,99.90
2018-04-23T00:12:44.215Z,99.90
2018-04-23T00:15:14.150Z,99.90
2018-04-23T00:17:45.046Z,99.90
2018-04-23T00:20:15.655Z,99.90
2018-04-23T00:22:45.875Z,99.90
2018-04-23T00:25:18.490Z,99.90
2018-04-23T00:27:50.575Z,99.90
2018-04-23T00:30:20.832Z,99.90
2018-04-23T00:32:51.483Z,99.90
2018-04-23T00:35:22.021Z,99.90
2018-04-23T00:37:59.271Z,99.90
2018-04-23T00:40:31.576Z,99.90
2018-04-23T00:43:02.301Z,99.90
2018-04-23T00:45:33.819Z,99.90
2018-04-23T00:48:03.518Z,99.90
2018-04-23T00:50:35.041Z,99.90
2018-04-23T00:53:15.043Z,99.90
2018-04-23T00:55:46.995Z,99.90
2018-04-23T00:58:23.011Z,99.90
2018-04-23T01:00:58.733Z,99.90
2018-04-23T01:03:33.062Z,99.90
2018-04-23T01:06:05.412Z,99.90
2018-04-23T01:08:35.776Z,99.90
2018-04-23T01:11:05.639Z,99.90
2018-04-23T01:13:35.772Z,99.90
2018-04-23T01:16:06.268Z,99.90
2018-04-23T01:18:40.009Z,99.90
2018-04-23T01:21:11.325Z,99.90
2018-04-23T01:23:43.366Z,99.90
2018-04-23T01:26:18.258Z,99.90
2018-04-23T01:28:48.212Z,99.90
2018-04-23T01:31:18.320Z,99.90
2018-04-23T01:33:48.888Z,99.90
2018-04-23T01:36:19.020Z,99.90
2018-04-23T01:38:49.972Z,99.90
2018-04-23T01:41:19.612Z,99.90
2018-04-23T01:43:49.589Z,99.90
2018-04-23T01:46:24.116Z,99.90
2018-04-23T01:48:54.090Z,99.90
2018-04-23T01:51:32.523Z,99.90
2018-04-23T01:54:02.568Z,99.90
2018-04-23T01:56:31.871Z,99.90
2018-04-23T01:59:01.883Z,99.90
2018-04-23T02:01:31.442Z,99.90
2018-04-23T02:04:02.944Z,99.90
2018-04-23T02:06:32.583Z,99.90
2018-04-23T02:09:04.935Z,99.90
2018-04-23T02:11:34.937Z,99.90
2018-04-23T02:14:04.528Z,99.90
2018-04-23T02:16:35.858Z,99.90
2018-04-23T02:19:05.301Z,99.90
2018-04-23T02:21:34.659Z,99.90
2018-04-23T02:24:05.384Z,99.90
2018-04-23T02:26:34.909Z,99.90
2018-04-23T02:29:04.590Z,99.90
2018-04-23T02:31:35.291Z,99.90
2018-04-23T02:34:10.139Z,99.90
2018-04-23T02:36:52.602Z,99.90
2018-04-23T02:39:22.618Z,99.90
2018-04-23T02:41:52.494Z,99.90
2018-04-23T02:44:22.968Z,99.90
2018-04-23T02:46:52.536Z,99.90
2018-04-23T02:49:24.091Z,99.90
2018-04-23T02:51:54.423Z,99.90
2018-04-23T02:54:24.956Z,99.90
2018-04-23T02:56:55.306Z,99.90
2018-04-23T02:59:25.144Z,99.90
2018-04-23T03:01:58.269Z,99.90
2018-04-23T03:04:28.508Z,99.90
2018-04-23T03:06:58.700Z,99.90
2018-04-23T03:09:27.992Z,99.90
2018-04-23T03:11:58.004Z,99.90
2018-04-23T03:14:27.777Z,99.90
2018-04-23T03:16:57.473Z,99.90
2018-04-23T03:19:29.203Z,99.90
2018-04-23T03:22:04.624Z,99.90
2018-04-23T03:24:39.406Z,99.90
2018-04-23T03:27:10.118Z,99.90
2018-04-23T03:29:39.719Z,99.90
2018-04-23T03:32:10.094Z,99.90
2018-04-23T03:34:39.842Z,99.90
2018-04-23T03:37:10.241Z,99.90
2018-04-23T03:39:40.261Z,99.90
2018-04-23T03:42:10.183Z,99.90
2018-04-23T03:44:39.664Z,99.90
2018-04-23T03:47:09.680Z,99.90
2018-04-23T03:49:41.557Z,99.90
2018-04-23T03:52:11.961Z,99.90
2018-04-23T03:54:42.740Z,99.90
2018-04-23T03:57:14.366Z,99.90
2018-04-23T03:59:44.397Z,99.90
2018-04-23T04:02:15.714Z,99.50
2018-04-23T04:04:45.462Z,99.50
2018-04-23T04:07:16.275Z,99.70
2018-04-23T04:09:47.379Z,99.70
2018-04-23T04:12:28.050Z,99.80
2018-04-23T04:17:07.154Z,99.40
2018-04-23T04:19:36.805Z,99.30
2018-04-23T04:22:08.646Z,98.50
2018-04-23T04:24:38.692Z,98.30
2018-04-23T04:27:08.138Z,97.90
2018-04-23T04:29:38.296Z,98.40
2018-04-23T04:32:07.745Z,98.30
2018-04-23T04:34:38.799Z,99.60
2018-04-23T04:37:09.388Z,98.50
2018-04-23T04:39:39.114Z,98.50
2018-04-23T04:42:09.569Z,98.80
2018-04-23T04:44:40.080Z,98.50
2018-04-23T04:47:11.567Z,98.50
2018-04-23T04:49:42.230Z,98.20
2018-04-23T04:52:12.482Z,97.60
2018-04-23T04:54:43.335Z,97.60
2018-04-23T04:57:25.519Z,97.10
2018-04-23T05:00:13.269Z,97.90
2018-04-23T05:02:48.606Z,97.40
2018-04-23T05:05:19.194Z,97.80
2018-04-23T05:07:48.829Z,97.50
2018-04-23T05:10:19.072Z,96.50
2018-04-23T05:12:48.478Z,96.50
2018-04-23T05:15:20.321Z,96.70
2018-04-23T05:17:50.821Z,97.30
2018-04-23T05:20:22.059Z,96.40
2018-04-23T05:22:58.329Z,96.30
2018-04-23T05:25:30.826Z,96.00
2018-04-23T05:28:02.094Z,96.10
2018-04-23T05:30:32.004Z,95.90
2018-04-23T05:33:02.511Z,96.00
2018-04-23T05:35:33.839Z,96.00
2018-04-23T05:38:04.839Z,95.50
2018-04-23T05:40:34.955Z,95.50
2018-04-23T05:43:06.251Z,95.20
2018-04-23T05:45:42.348Z,95.00
2018-04-23T05:48:22.057Z,94.70
2018-04-23T05:51:14.109Z,94.60
2018-04-23T05:54:13.697Z,94.80
2018-04-23T05:56:46.824Z,94.00
2018-04-23T05:59:17.765Z,93.30
2018-04-23T06:01:51.428Z,94.10
2018-04-23T06:04:32.946Z,93.70
2018-04-23T06:10:28.414Z,93.90
2018-04-23T06:13:10.410Z,93.40
2018-04-23T06:15:41.290Z,93.30
2018-04-23T06:18:22.113Z,92.40
2018-04-23T06:21:01.517Z,93.30
2018-04-23T06:23:44.949Z,93.00
2018-04-23T06:29:08.770Z,92.40
2018-04-23T06:31:48.662Z,92.90
2018-04-23T06:34:21.456Z,92.80
2018-04-23T06:39:58.069Z,92.10
2018-04-23T06:42:28.158Z,92.20
2018-04-23T06:44:59.003Z,91.70
2018-04-23T06:51:04.151Z,91.50
2018-04-23T06:53:35.836Z,90.70
2018-04-23T06:56:06.897Z,90.50
2018-04-23T06:58:36.785Z,90.60
2018-04-23T07:01:08.524Z,88.60
2018-04-23T07:03:41.209Z,88.70
2018-04-23T07:06:21.608Z,89.70
2018-04-23T07:11:55.947Z,88.10
2018-04-23T07:14:34.877Z,88.00
2018-04-23T07:17:08.982Z,87.60
2018-04-23T07:19:39.696Z,88.40
2018-04-23T07:22:10.864Z,88.00
2018-04-23T07:24:45.541Z,87.30
2018-04-23T07:30:09.681Z,85.60
2018-04-23T07:32:49.904Z,85.60
2018-04-23T07:35:54.834Z,85.00
2018-04-23T07:38:31.744Z,84.20
2018-04-23T07:41:08.117Z,82.50
2018-04-23T07:43:42.844Z,81.90
2018-04-23T07:46:14.581Z,82.00
2018-04-23T07:48:48.977Z,81.80
2018-04-23T07:51:24.807Z,82.50
2018-04-23T07:54:02.873Z,82.50
2018-04-23T07:56:35.347Z,82.70
2018-04-23T07:59:07.638Z,84.10
2018-04-23T08:01:37.871Z,84.90
2018-04-23T08:04:09.153Z,85.40
2018-04-23T08:06:54.082Z,81.90
2018-04-23T08:09:24.812Z,81.90
2018-04-23T08:11:55.962Z,78.80
2018-04-23T08:14:26.230Z,76.80
2018-04-23T08:16:59.588Z,75.40
2018-04-23T08:19:31.310Z,74.30
2018-04-23T08:22:05.135Z,70.90
2018-04-23T08:24:37.609Z,67.60
2018-04-23T08:27:14.556Z,67.50
2018-04-23T08:29:44.876Z,68.90
2018-04-23T08:32:26.363Z,66.10
2018-04-23T08:34:58.618Z,66.30
2018-04-23T08:37:36.047Z,64.40
2018-04-23T08:40:10.116Z,66.00
2018-04-23T08:42:40.032Z,64.60
2018-04-23T08:45:11.267Z,60.60
2018-04-23T08:47:42.032Z,58.70
2018-04-23T08:50:12.114Z,58.70
2018-04-23T08:52:43.248Z,57.40
2018-04-23T08:55:16.334Z,51.40
2018-04-23T08:57:58.293Z,51.50
2018-04-23T09:00:29.827Z,49.80
2018-04-23T09:02:59.908Z,53.90
2018-04-23T09:09:18.713Z,54.90
2018-04-23T09:11:49.052Z,59.10
2018-04-23T09:14:19.221Z,59.10
2018-04-23T09:16:49.051Z,56.50
2018-04-23T09:19:19.055Z,53.20
2018-04-23T09:21:53.467Z,52.50
2018-04-23T09:24:26.359Z,50.80
2018-04-23T09:26:56.566Z,50.70
2018-04-23T09:29:29.375Z,48.60
2018-04-23T09:32:00.278Z,45.90
2018-04-23T09:34:32.207Z,43.50
2018-04-23T09:37:02.880Z,44.40
2018-04-23T09:39:34.330Z,45.30
2018-04-23T09:42:04.850Z,45.30
2018-04-23T09:44:44.182Z,44.80
2018-04-23T09:47:14.506Z,45.70
2018-04-23T09:49:45.873Z,46.10
2018-04-23T09:52:17.924Z,46.30
2018-04-23T09:54:57.823Z,46.30
2018-04-23T09:57:47.546Z,46.00
2018-04-23T10:00:30.800Z,48.70
2018-04-23T10:03:10.229Z,53.00
2018-04-23T10:05:39.622Z,54.80
2018-04-23T10:08:16.301Z,51.90
2018-04-23T10:10:48.925Z,47.90
2018-04-23T10:13:21.775Z,45.80
2018-04-23T10:15:51.714Z,45.00
2018-04-23T10:18:21.386Z,43.50
2018-04-23T10:21:03.480Z,43.70
2018-04-23T10:23:33.124Z,46.40
2018-04-23T10:26:13.475Z,47.20
2018-04-23T10:28:44.295Z,47.40
2018-04-23T10:31:27.544Z,46.40
2018-04-23T10:33:58.540Z,44.50
2018-04-23T10:36:50.054Z,43.70
2018-04-23T10:39:22.879Z,44.20
2018-04-23T10:41:52.476Z,43.80
2018-04-23T10:44:27.519Z,42.70
2018-04-23T10:46:58.981Z,45.10
2018-04-23T10:49:29.517Z,44.80
2018-04-23T10:52:00.605Z,41.90
2018-04-23T10:54:33.857Z,40.70
2018-04-23T10:57:05.703Z,39.70
2018-04-23T10:59:35.414Z,38.10
2018-04-23T11:02:06.445Z,39.90
2018-04-23T11:04:36.385Z,42.80
2018-04-23T11:07:08.180Z,43.10
2018-04-23T11:09:49.292Z,40.90
2018-04-23T11:12:20.791Z,41.50
2018-04-23T11:15:20.016Z,45.00
2018-04-23T11:18:05.008Z,43.80
2018-04-23T11:20:36.890Z,41.00
2018-04-23T11:23:07.296Z,41.50
2018-04-23T11:25:39.591Z,43.20
2018-04-23T11:28:12.519Z,43.50
2018-04-23T11:30:53.701Z,44.30
2018-04-23T11:33:31.074Z,45.90
2018-04-23T11:36:01.196Z,45.70
2018-04-23T11:38:30.993Z,46.60
2018-04-23T11:41:03.579Z,45.00
2018-04-23T11:43:34.992Z,45.00
2018-04-23T11:46:06.315Z,41.90
2018-04-23T11:48:37.030Z,41.20
2018-04-23T11:51:10.739Z,38.70
2018-04-23T11:53:42.570Z,38.70
2018-04-23T11:56:15.171Z,38.20
2018-04-23T11:58:48.779Z,35.40
2018-04-23T12:01:18.418Z,35.30
2018-04-23T12:03:50.778Z,34.10
2018-04-23T12:06:27.548Z,33.50
2018-04-23T12:08:57.491Z,32.90
2018-04-23T12:11:28.008Z,32.10
2018-04-23T12:13:58.084Z,33.10
2018-04-23T12:16:36.717Z,34.90
2018-04-23T12:25:33.785Z,35.50
2018-04-23T12:31:11.200Z,34.60
2018-04-23T12:33:41.015Z,38.40
2018-04-23T12:36:15.010Z,41.90
2018-04-23T12:38:47.776Z,41.90
2018-04-23T12:41:21.722Z,43.70
2018-04-23T12:43:52.240Z,43.90
2018-04-23T12:46:30.786Z,45.00
2018-04-23T12:49:05.380Z,46.10
2018-04-23T12:51:38.744Z,43.00
2018-04-23T12:54:08.717Z,39.90
2018-04-23T12:56:39.235Z,38.60
2018-04-23T12:59:16.840Z,37.40
2018-04-23T13:01:50.000Z,35.30
2018-04-23T13:04:25.499Z,35.80
2018-04-23T13:06:55.199Z,33.60
2018-04-23T13:09:26.522Z,33.00
2018-04-23T13:12:02.724Z,31.80
2018-04-23T13:14:35.759Z,33.10
2018-04-23T13:20:28.315Z,34.00
2018-04-23T13:22:59.010Z,35.50
2018-04-23T13:25:44.215Z,35.40
2018-04-23T13:28:27.778Z,36.60
2018-04-23T13:31:08.684Z,37.30
2018-04-23T13:33:41.346Z,36.60
2018-04-23T13:36:13.341Z,34.50
2018-04-23T13:38:45.217Z,35.30
2018-04-23T13:41:19.766Z,35.20
2018-04-23T13:44:16.084Z,34.60
2018-04-23T13:46:50.821Z,35.50
2018-04-23T13:49:23.587Z,37.60
2018-04-23T13:52:00.111Z,40.00
2018-04-23T13:54:32.983Z,39.90
2018-04-23T13:57:24.494Z,41.10
2018-04-23T14:03:41.679Z,40.10
2018-04-23T14:06:12.255Z,40.00
2018-04-23T14:08:43.115Z,40.20
2018-04-23T14:11:24.111Z,41.40
2018-04-23T14:14:07.864Z,40.50
2018-04-23T14:16:40.559Z,39.90
2018-04-23T14:19:11.633Z,40.30
2018-04-23T14:21:44.097Z,40.10
2018-04-23T14:24:21.629Z,40.40
2018-04-23T14:26:54.687Z,37.70
2018-04-23T14:29:30.816Z,37.70
2018-04-23T14:32:01.405Z,37.50
2018-04-23T14:34:39.221Z,37.90
2018-04-23T14:37:23.985Z,39.60
2018-04-23T14:39:57.016Z,40.90
2018-04-23T14:46:04.045Z,39.50
2018-04-23T14:48:37.750Z,39.50
2018-04-23T14:51:08.552Z,39.50
2018-04-23T14:53:53.809Z,40.80
2018-04-23T15:00:22.994Z,40.20
2018-04-23T15:03:02.472Z,39.70
2018-04-23T15:05:34.110Z,41.40
2018-04-23T15:08:06.704Z,42.50
2018-04-23T15:10:40.632Z,44.20
2018-04-23T15:13:11.900Z,45.20
2018-04-23T15:15:41.952Z,45.20
2018-04-23T15:18:21.960Z,45.60
2018-04-23T15:20:59.920Z,45.90
2018-04-23T15:26:29.580Z,46.10
2018-04-23T15:31:54.502Z,46.40
2018-04-23T15:34:32.054Z,46.40
2018-04-23T15:37:34.540Z,46.10
2018-04-23T15:40:33.875Z,48.50
2018-04-23T15:43:21.676Z,47.50
2018-04-23T15:49:45.816Z,45.80
2018-04-23T15:55:52.381Z,44.00
2018-04-23T15:58:28.591Z,44.70
2018-04-23T16:03:27.696Z,44.90
2018-04-23T16:06:08.652Z,44.90
2018-04-23T16:08:43.813Z,43.80
2018-04-23T16:11:15.709Z,43.20
2018-04-23T16:13:50.092Z,42.00
2018-04-23T16:16:23.627Z,44.20
2018-04-23T16:18:54.930Z,44.30
2018-04-23T16:21:27.608Z,43.60
2018-04-23T16:24:07.868Z,41.60
2018-04-23T16:26:40.184Z,42.20
2018-04-23T16:29:10.018Z,42.60
2018-04-23T16:31:50.966Z,43.80
2018-04-23T16:34:24.053Z,43.70
2018-04-23T16:36:55.052Z,42.80
2018-04-23T16:39:37.417Z,43.20
2018-04-23T16:42:11.833Z,43.10
2018-04-23T16:44:44.092Z,43.50
2018-04-23T16:50:58.054Z,42.60
2018-04-23T16:53:44.236Z,42.60
2018-04-23T16:56:22.375Z,43.50
2018-04-23T16:58:55.907Z,44.00
2018-04-23T17:01:28.928Z,44.00
2018-04-23T17:04:25.612Z,44.20
2018-04-23T17:07:00.304Z,45.10
2018-04-23T17:09:34.594Z,43.90
2018-04-23T17:12:11.605Z,43.60
2018-04-23T17:14:43.793Z,44.40
2018-04-23T17:17:15.144Z,45.00
2018-04-23T17:19:46.026Z,46.10
2018-04-23T17:22:41.588Z,45.70
2018-04-23T17:25:13.023Z,45.70
2018-04-23T17:27:48.340Z,46.00
2018-04-23T17:30:22.896Z,45.80
2018-04-23T17:33:12.087Z,46.40
2018-04-23T17:35:57.320Z,46.30
2018-04-23T17:38:31.969Z,47.00
2018-04-23T17:41:05.947Z,46.90
2018-04-23T17:43:46.409Z,48.10
2018-04-23T17:46:18.647Z,48.10
2018-04-23T17:48:57.214Z,49.20
2018-04-23T17:51:27.763Z,47.40
2018-04-23T17:53:58.142Z,48.10
2018-04-23T17:56:30.472Z,48.90
2018-04-23T17:59:01.536Z,47.50
2018-04-23T18:01:32.404Z,48.20
2018-04-23T18:04:07.795Z,47.20
2018-04-23T18:06:43.033Z,48.80
2018-04-23T18:09:13.898Z,48.80
2018-04-23T18:11:48.312Z,49.00
2018-04-23T18:14:24.034Z,49.00
2018-04-23T18:16:54.070Z,49.80
2018-04-23T18:19:56.820Z,49.10
2018-04-23T18:22:28.647Z,49.50
2018-04-23T18:24:58.851Z,50.40
2018-04-23T18:27:34.881Z,50.80
2018-04-23T18:30:05.613Z,52.00
2018-04-23T18:32:44.855Z,54.10
2018-04-23T18:35:33.499Z,54.10
2018-04-23T18:38:03.617Z,55.00
2018-04-23T18:40:36.463Z,55.10
2018-04-23T18:43:09.593Z,55.20
2018-04-23T18:45:48.285Z,56.80
2018-04-23T18:48:26.344Z,55.60
2018-04-23T18:51:00.450Z,55.90
2018-04-23T18:53:35.377Z,57.50
2018-04-23T18:56:05.024Z,57.50
2018-04-23T18:58:53.645Z,58.20
2018-04-23T19:01:37.897Z,58.20
2018-04-23T19:04:09.486Z,59.00
2018-04-23T19:06:39.764Z,59.60
2018-04-23T19:09:09.581Z,59.50
2018-04-23T19:11:40.135Z,60.80
2018-04-23T19:14:10.582Z,60.30
2018-04-23T19:16:43.639Z,61.30
2018-04-23T19:19:14.416Z,61.30
2018-04-23T19:21:45.228Z,62.20
2018-04-23T19:24:15.349Z,61.50
2018-04-23T19:26:46.010Z,61.70
2018-04-23T19:29:17.348Z,63.90
2018-04-23T19:31:48.996Z,63.70
2018-04-23T19:34:19.330Z,63.70
2018-04-23T19:36:51.308Z,63.90
2018-04-23T19:39:21.939Z,63.90
2018-04-23T19:41:58.678Z,63.20
2018-04-23T19:44:30.779Z,63.00
2018-04-23T19:47:01.715Z,62.50
2018-04-23T19:49:34.548Z,62.40
2018-04-23T19:52:04.840Z,62.80
2018-04-23T19:54:42.129Z,63.70
2018-04-23T19:57:17.153Z,63.80
2018-04-23T19:59:50.846Z,63.70
2018-04-23T20:02:21.885Z,63.60
2018-04-23T20:04:56.102Z,63.40
2018-04-23T20:07:30.952Z,63.90
2018-04-23T20:10:04.861Z,63.40
2018-04-23T20:12:34.303Z,63.40
2018-04-23T20:15:04.282Z,63.30
2018-04-23T20:17:35.919Z,63.30
2018-04-23T20:20:07.500Z,64.90
2018-04-23T20:22:39.170Z,64.90
2018-04-23T20:25:09.667Z,64.30
2018-04-23T20:27:41.024Z,64.80
2018-04-23T20:30:12.193Z,64.50
2018-04-23T20:32:41.793Z,64.80
2018-04-23T20:35:12.144Z,66.30
2018-04-23T20:37:46.620Z,66.30
2018-04-23T20:40:18.315Z,66.30
2018-04-23T20:42:51.020Z,66.90
2018-04-23T20:45:20.998Z,66.70
2018-04-23T20:48:00.250Z,67.80
2018-04-23T20:50:31.663Z,67.90
2018-04-23T20:53:06.687Z,69.50
2018-04-23T20:55:37.558Z,69.80
2018-04-23T20:58:08.496Z,70.90
2018-04-23T21:01:03.521Z,71.20
2018-04-23T21:03:35.572Z,71.50
2018-04-23T21:06:11.767Z,72.40
2018-04-23T21:08:59.413Z,73.70
2018-04-23T21:11:56.162Z,73.50
2018-04-23T21:14:34.782Z,73.70
2018-04-23T21:17:23.732Z,74.10
2018-04-23T21:20:03.798Z,72.90
2018-04-23T21:22:36.557Z,72.30
2018-04-23T21:25:17.803Z,72.50
2018-04-23T21:27:50.777Z,72.60
2018-04-23T21:30:34.002Z,72.60
2018-04-23T21:33:18.300Z,72.70
2018-04-23T21:36:00.878Z,73.00
2018-04-23T21:38:38.140Z,73.30
2018-04-23T21:41:12.378Z,73.40
2018-04-23T21:43:44.222Z,73.90
2018-04-23T21:46:14.842Z,74.60
2018-04-23T21:48:46.048Z,74.80
2018-04-23T21:51:16.280Z,74.70
2018-04-23T21:53:46.783Z,74.80
2018-04-23T21:56:16.828Z,74.70
2018-04-23T21:58:50.388Z,74.70
2018-04-23T22:01:20.962Z,75.10
2018-04-23T22:03:51.080Z,75.10
2018-04-23T22:06:23.386Z,75.10
2018-04-23T22:08:53.190Z,75.60
2018-04-23T22:11:24.605Z,75.50
2018-04-23T22:13:58.422Z,75.60
2018-04-23T22:16:28.998Z,76.10
2018-04-23T22:19:01.182Z,76.00
2018-04-23T22:21:48.142Z,76.60
2018-04-23T22:24:22.643Z,76.60
2018-04-23T22:26:58.596Z,76.80
2018-04-23T22:29:33.401Z,77.30
2018-04-23T22:32:14.879Z,77.30
2018-04-23T22:34:55.565Z,77.90
2018-04-23T22:37:28.319Z,77.90
2018-04-23T22:40:01.319Z,77.90
2018-04-23T22:42:32.229Z,77.80
2018-04-23T22:45:10.017Z,78.70
2018-04-23T22:48:00.957Z,79.10
2018-04-23T22:50:32.686Z,79.00
2018-04-23T22:53:11.171Z,78.30
2018-04-23T22:55:43.234Z,78.40
2018-04-23T22:58:13.154Z,78.40
2018-04-23T23:00:42.700Z,78.50
2018-04-23T23:03:14.452Z,79.20
2018-04-23T23:05:46.589Z,79.40
2018-04-23T23:08:21.710Z,79.40
2018-04-23T23:11:01.392Z,79.80
2018-04-23T23:13:32.752Z,79.80
2018-04-23T23:16:07.717Z,80.40
2018-04-23T23:18:39.994Z,80.40
2018-04-23T23:21:11.528Z,80.60
2018-04-23T23:23:40.979Z,81.20
2018-04-23T23:26:20.834Z,80.90
2018-04-23T23:29:00.362Z,81.00
2018-04-23T23:31:31.751Z,81.90
2018-04-23T23:34:03.874Z,81.80
2018-04-23T23:36:38.573Z,82.30
2018-04-23T23:39:08.599Z,82.20
2018-04-23T23:41:38.113Z,82.20
2018-04-23T23:44:09.325Z,82.30
2018-04-23T23:46:39.214Z,82.60
2018-04-23T23:49:09.556Z,82.70
2018-04-23T23:51:40.074Z,83.20
2018-04-23T23:54:09.392Z,83.20
2018-04-23T23:56:39.620Z,83.60
2018-04-23T23:59:15.825Z,83.60
